Time;durP1;ratioP1;P1;durP2;ratioP2;P2;SDS_P1;SDS_P2;PMS_P1;PMS_P2;Temp;Humidity;BMP_temperature;BMP_pressure;BME280_temperature;BME280_humidity;BME280_pressure;Samples;Min_cycle;Max_cycle;Signal;HPM_P1;HPM_P2
2022/11/17 00:00:00;;;;;;;6.17;1.50;;;14.30;68.20;;;;;;4987950;28;20479;-58
2022/11/17 00:02:25;;;;;;;6.37;1.10;;;14.30;68.30;;;;;;4988683;28;20177;-63
2022/11/17 00:04:51;;;;;;;5.07;1.30;;;14.30;68.40;;;;;;4987621;28;20057;-57
2022/11/17 00:07:17;;;;;;;4.00;1.20;;;14.30;68.00;;;;;;4984433;28;20346;-57
2022/11/17 00:09:42;;;;;;;3.47;1.13;;;14.20;68.30;;;;;;4988015;28;20030;-61
2022/11/17 00:14:52;;;;;;;5.70;1.60;;;14.20;69.00;;;;;;4987115;28;20073;-61
2022/11/17 00:17:18;;;;;;;4.20;1.33;;;14.20;69.00;;;;;;4988853;28;20034;-63
2022/11/17 00:22:31;;;;;;;6.45;1.27;;;14.20;68.70;;;;;;4988539;28;20100;-61
2022/11/17 00:24:56;;;;;;;5.53;1.50;;;14.30;68.80;;;;;;4985050;28;20086;-59
2022/11/17 00:27:22;;;;;;;4.10;1.53;;;14.20;68.20;;;;;;4986117;28;20065;-61
2022/11/17 00:29:48;;;;;;;3.63;1.43;;;14.30;68.80;;;;;;4987022;28;20030;-62
2022/11/17 00:35:02;;;;;;;5.53;1.35;;;14.30;68.40;;;;;;4980874;28;20080;-59
2022/11/17 00:37:31;;;;;;;5.63;1.38;;;14.30;68.50;;;;;;4979634;28;20105;-61
2022/11/17 00:39:57;;;;;;;8.80;1.52;;;14.30;67.90;;;;;;4988938;28;20038;-62
2022/11/17 00:42:23;;;;;;;6.40;1.47;;;14.30;68.20;;;;;;4988063;28;20026;-61
2022/11/17 00:44:48;;;;;;;8.97;1.17;;;14.30;68.20;;;;;;4987893;28;20391;-61
2022/11/17 00:47:14;;;;;;;6.43;1.20;;;14.30;68.30;;;;;;4986274;28;20035;-63
2022/11/17 00:49:39;;;;;;;9.77;2.20;;;14.30;68.30;;;;;;4989189;28;20402;-58
2022/11/17 00:52:05;;;;;;;20.27;2.40;;;14.30;68.60;;;;;;4987221;28;20035;-61
2022/11/17 00:54:30;;;;;;;6.17;1.57;;;14.30;68.50;;;;;;4986238;28;20022;-63
2022/11/17 00:56:56;;;;;;;4.27;1.40;;;14.30;68.60;;;;;;4985517;28;20035;-61
2022/11/17 00:59:22;;;;;;;3.13;1.67;;;14.20;68.90;;;;;;4984785;28;20022;-62
2022/11/17 01:01:47;;;;;;;8.17;1.20;;;14.30;69.00;;;;;;4989717;28;20014;-62
2022/11/17 01:04:14;;;;;;;4.83;1.47;;;14.20;68.50;;;;;;4986441;28;20022;-61
2022/11/17 01:06:42;;;;;;;4.50;1.15;;;14.30;68.40;;;;;;4986087;28;20088;-62
2022/11/17 01:09:26;;;;;;;10.25;1.40;;;14.30;68.50;;;;;;4989219;28;20035;-62
2022/11/17 01:11:52;;;;;;;5.55;1.45;;;14.30;68.70;;;;;;4988132;28;20120;-57
2022/11/17 01:14:24;;;;;;;1.38;0.95;;;14.30;68.20;;;;;;4984759;28;20026;-61
2022/11/17 01:16:50;;;;;;;7.72;1.77;;;14.30;69.20;;;;;;4988690;28;20121;-62
2022/11/17 01:19:17;;;;;;;5.45;1.05;;;14.40;67.90;;;;;;4986993;28;20026;-63
2022/11/17 01:21:43;;;;;;;3.15;1.13;;;14.40;67.60;;;;;;4986390;28;20030;-62
2022/11/17 01:24:10;;;;;;;3.42;1.27;;;14.40;67.40;;;;;;4987316;28;20151;-59
2022/11/17 01:26:37;;;;;;;4.97;1.70;;;14.50;67.50;;;;;;4988627;28;20506;-62
2022/11/17 01:29:04;;;;;;;2.30;0.95;;;14.50;67.20;;;;;;4982748;28;20145;-61
2022/11/17 01:31:32;;;;;;;2.92;1.10;;;14.50;67.30;;;;;;4983752;28;20031;-61
2022/11/17 01:33:57;;;;;;;2.67;1.10;;;14.50;66.70;;;;;;4986668;28;20058;-61
2022/11/17 01:36:26;;;;;;;8.10;1.00;;;14.50;66.20;;;;;;4988343;28;20046;-59
2022/11/17 01:38:52;;;;;;;8.40;2.35;;;14.50;66.20;;;;;;4983170;28;20042;-57
2022/11/17 01:41:26;;;;;;;4.07;1.27;;;14.50;66.60;;;;;;4985134;28;20029;-60
2022/11/17 01:43:56;;;;;;;3.85;1.20;;;14.50;66.60;;;;;;4982798;28;20034;-63
2022/11/17 01:46:32;;;;;;;5.30;1.17;;;14.50;66.50;;;;;;4981137;28;20035;-61
2022/11/17 01:49:23;;;;;;;4.53;1.05;;;14.60;66.20;;;;;;4982993;28;20602;-58
2022/11/17 01:51:58;;;;;;;3.90;1.13;;;14.50;66.50;;;;;;4982590;28;20023;-62
2022/11/17 01:54:25;;;;;;;3.30;1.02;;;14.50;66.60;;;;;;4982395;28;20026;-57
2022/11/17 01:57:01;;;;;;;4.25;1.75;;;14.50;67.50;;;;;;4985796;28;20041;-60
2022/11/17 01:59:41;;;;;;;6.13;1.25;;;14.50;67.30;;;;;;4984802;28;20022;-60
2022/11/17 02:02:07;;;;;;;3.28;1.08;;;14.50;67.50;;;;;;4986452;28;20457;-59
2022/11/17 02:04:37;;;;;;;7.27;1.40;;;14.40;67.60;;;;;;4985184;28;20106;-60
2022/11/17 02:07:24;;;;;;;5.75;1.17;;;14.40;68.10;;;;;;4985557;28;20047;-61
2022/11/17 02:09:51;;;;;;;4.68;1.85;;;14.40;68.20;;;;;;4984957;28;20027;-61
2022/11/17 02:12:19;;;;;;;3.25;1.05;;;14.30;68.80;;;;;;4986024;28;20030;-64
2022/11/17 02:14:47;;;;;;;5.43;1.25;;;14.30;68.80;;;;;;4985467;28;20057;-63
2022/11/17 02:17:13;;;;;;;1.77;1.05;;;14.30;68.50;;;;;;4985007;28;20114;-57
2022/11/17 02:19:41;;;;;;;2.83;1.40;;;14.20;68.90;;;;;;4987495;28;20109;-59
2022/11/17 02:22:46;;;;;;;4.13;1.50;;;14.30;68.90;;;;;;4985854;28;20376;-59
2022/11/17 02:25:33;;;;;;;5.35;1.08;;;14.30;68.70;;;;;;4986520;28;20494;-58
2022/11/17 02:28:35;;;;;;;4.93;0.95;;;14.30;68.70;;;;;;4980522;28;20034;-57
2022/11/17 02:31:14;;;;;;;2.42;0.88;;;14.20;68.60;;;;;;4979836;28;20046;-58
2022/11/17 02:34:02;;;;;;;4.68;1.17;;;14.30;67.70;;;;;;4983031;28;20038;-61
2022/11/17 02:36:54;;;;;;;4.85;1.27;;;14.30;68.60;;;;;;4986718;28;20141;-60
2022/11/17 02:39:30;;;;;;;7.50;1.67;;;14.30;68.10;;;;;;4983267;28;20077;-59
2022/11/17 02:44:02;;;;;;;4.65;1.20;;;14.30;68.10;;;;;;4986024;28;20050;-62
2022/11/17 02:45:29;;;;;;;3.85;1.10;;;14.20;67.70;;;;;;4985448;28;20038;-63
2022/11/17 02:47:58;;;;;;;3.60;1.23;;;14.20;67.80;;;;;;4983689;28;20128;-59
2022/11/17 02:50:26;;;;;;;6.13;1.30;;;14.20;68.00;;;;;;4983637;28;20035;-61
2022/11/17 02:52:52;;;;;;;2.80;0.88;;;14.20;67.00;;;;;;4988524;28;20022;-60
2022/11/17 02:55:18;;;;;;;6.13;1.00;;;14.20;68.00;;;;;;4987499;28;20044;-62
2022/11/17 02:57:44;;;;;;;3.83;0.93;;;14.20;67.60;;;;;;4985810;28;20505;-60
2022/11/17 03:00:14;;;;;;;4.50;1.67;;;14.20;67.30;;;;;;4989337;28;20060;-60
2022/11/17 03:03:13;;;;;;;3.80;1.00;;;14.20;66.60;;;;;;4991979;28;20105;-61
2022/11/17 03:06:00;;;;;;;4.40;0.98;;;14.20;67.20;;;;;;4985491;28;20486;-59
2022/11/17 03:08:28;;;;;;;4.82;1.60;;;14.20;66.60;;;;;;4987678;28;20042;-60
2022/11/17 03:11:07;;;;;;;3.67;0.95;;;14.30;66.20;;;;;;4989175;28;20030;-61
2022/11/17 03:13:39;;;;;;;7.97;1.27;;;14.20;66.90;;;;;;4989078;28;20109;-59
2022/11/17 03:16:15;;;;;;;5.25;0.98;;;14.20;66.30;;;;;;4987131;28;20080;-64
2022/11/17 03:18:59;;;;;;;4.90;1.08;;;14.30;66.50;;;;;;4987776;28;20498;-62
2022/11/17 03:21:35;;;;;;;5.32;1.30;;;14.30;66.10;;;;;;4988258;28;20030;-61
2022/11/17 03:24:03;;;;;;;2.80;0.90;;;14.30;66.50;;;;;;4987393;28;20034;-59
2022/11/17 03:26:43;;;;;;;7.32;1.40;;;14.20;67.10;;;;;;4988031;28;20034;-63
2022/11/17 03:29:13;;;;;;;5.15;0.98;;;14.20;66.20;;;;;;4987306;28;20058;-61
2022/11/17 03:31:40;;;;;;;3.78;1.00;;;14.30;66.00;;;;;;4988517;28;20034;-58
2022/11/17 03:34:10;;;;;;;3.90;1.10;;;14.30;65.60;;;;;;4989271;28;20525;-63
2022/11/17 03:36:40;;;;;;;3.28;1.10;;;14.30;66.60;;;;;;4985023;28;20031;-62
2022/11/17 03:39:15;;;;;;;2.78;1.08;;;14.30;66.00;;;;;;4989157;28;20117;-63
2022/11/17 03:41:46;;;;;;;3.95;1.02;;;14.30;66.60;;;;;;4987019;28;20484;-62
2022/11/17 03:44:15;;;;;;;5.25;1.23;;;14.30;66.50;;;;;;4988944;28;20031;-60
2022/11/17 03:46:43;;;;;;;1.98;0.85;;;14.20;66.10;;;;;;4988128;28;20049;-60
2022/11/17 03:49:18;;;;;;;19.30;1.55;;;14.30;66.10;;;;;;4987610;28;20023;-62
2022/11/17 03:51:44;;;;;;;2.78;0.93;;;14.30;65.80;;;;;;4987954;28;20023;-59
2022/11/17 03:54:10;;;;;;;4.53;0.87;;;14.30;66.10;;;;;;4989359;28;20034;-60
2022/11/17 03:56:44;;;;;;;2.75;1.00;;;14.30;66.00;;;;;;4987587;28;20026;-59
2022/11/17 03:59:18;;;;;;;3.97;1.00;;;14.30;66.10;;;;;;4988247;28;20530;-57
2022/11/17 04:01:44;;;;;;;7.55;1.67;;;14.30;66.40;;;;;;4988518;28;20018;-57
2022/11/17 04:04:18;;;;;;;4.00;0.97;;;14.30;66.30;;;;;;4983837;28;20078;-59
2022/11/17 04:06:43;;;;;;;3.20;0.82;;;14.20;66.20;;;;;;4988089;28;20031;-63
2022/11/17 04:09:09;;;;;;;3.67;0.75;;;14.20;66.40;;;;;;4986687;28;20395;-58
2022/11/17 04:17:04;;;;;;;3.95;1.10;;;14.10;66.60;;;;;;4987456;28;20040;-61
2022/11/17 04:19:29;;;;;;;6.10;1.33;;;14.10;66.80;;;;;;4984585;28;20026;-62
2022/11/17 04:21:55;;;;;;;5.57;1.20;;;14.00;66.80;;;;;;4988639;28;20394;-63
2022/11/17 04:24:20;;;;;;;4.97;1.27;;;14.00;67.10;;;;;;4988774;28;20449;-63
2022/11/17 04:29:31;;;;;;;2.70;0.80;;;14.10;66.60;;;;;;4987857;28;20030;-59
2022/11/17 04:31:56;;;;;;;3.10;0.90;;;14.10;66.90;;;;;;4985507;28;20035;-59
2022/11/17 04:34:22;;;;;;;3.47;1.13;;;14.10;66.40;;;;;;4983533;28;20038;-62
2022/11/17 04:36:47;;;;;;;2.57;1.10;;;14.20;66.70;;;;;;5002716;28;20026;-58
2022/11/17 04:39:14;;;;;;;5.17;1.00;;;14.20;66.90;;;;;;4989717;28;20105;-57
2022/11/17 04:41:52;;;;;;;2.10;0.90;;;14.20;66.70;;;;;;4984341;28;20037;-56
2022/11/17 04:44:28;;;;;;;4.78;0.95;;;14.20;67.10;;;;;;4982889;28;20062;-57
2022/11/17 04:46:55;;;;;;;6.38;0.88;;;14.20;67.40;;;;;;4983988;28;20491;-57
2022/11/17 04:49:22;;;;;;;5.85;0.93;;;14.20;67.20;;;;;;4988699;28;20026;-57
2022/11/17 04:51:48;;;;;;;6.13;1.25;;;14.20;66.80;;;;;;4987457;28;20041;-59
2022/11/17 04:54:16;;;;;;;4.07;0.90;;;14.20;66.90;;;;;;4982296;28;20771;-62
2022/11/17 04:56:42;;;;;;;3.47;1.00;;;14.20;67.40;;;;;;4986659;28;20030;-60
2022/11/17 04:59:08;;;;;;;2.17;0.98;;;14.20;67.30;;;;;;4986047;28;20458;-56
2022/11/17 05:01:34;;;;;;;7.88;1.30;;;14.20;67.50;;;;;;4987736;28;20105;-59
2022/11/17 05:04:04;;;;;;;3.90;1.00;;;14.20;67.70;;;;;;4983175;28;20030;-60
2022/11/17 05:06:34;;;;;;;5.35;1.00;;;14.20;67.10;;;;;;4987632;28;20030;-58
2022/11/17 05:09:03;;;;;;;3.63;0.93;;;14.20;67.10;;;;;;4988026;28;20092;-60
2022/11/17 05:14:18;;;;;;;5.47;1.00;;;14.30;66.80;;;;;;4982432;28;20354;-61
2022/11/17 05:19:29;;;;;;;3.42;0.80;;;14.40;66.20;;;;;;4987563;28;20053;-62
2022/11/17 05:21:55;;;;;;;3.03;0.80;;;14.40;66.70;;;;;;4985931;28;20030;-63
2022/11/17 05:24:21;;;;;;;3.10;0.70;;;14.30;66.70;;;;;;4982867;28;20403;-62
2022/11/17 05:26:48;;;;;;;3.53;0.85;;;14.40;67.00;;;;;;4985480;28;20148;-60
2022/11/17 05:29:16;;;;;;;1.27;0.68;;;14.40;66.90;;;;;;4986105;28;20461;-62
2022/11/17 05:31:42;;;;;;;6.25;0.90;;;14.40;67.20;;;;;;4984555;28;20026;-62
2022/11/17 05:34:11;;;;;;;8.77;0.98;;;14.40;66.40;;;;;;4987301;28;20042;-59
2022/11/17 05:36:37;;;;;;;1.88;0.90;;;14.40;66.00;;;;;;4980830;28;20034;-57
2022/11/17 05:39:03;;;;;;;5.43;0.93;;;14.50;65.80;;;;;;4984462;28;20042;-57
2022/11/17 05:41:29;;;;;;;3.22;1.10;;;14.50;65.80;;;;;;4985273;28;20642;-58
2022/11/17 05:43:55;;;;;;;5.93;1.40;;;14.50;65.90;;;;;;4985697;28;20034;-57
2022/11/17 05:46:21;;;;;;;3.55;0.75;;;14.60;66.00;;;;;;4983953;28;20026;-56
2022/11/17 05:48:51;;;;;;;2.67;1.00;;;14.60;65.60;;;;;;4984796;28;20038;-57
2022/11/17 05:51:19;;;;;;;3.45;0.63;;;14.50;65.20;;;;;;4985131;28;20034;-57
2022/11/17 05:53:45;;;;;;;5.28;1.00;;;14.60;65.20;;;;;;4985101;28;20054;-57
2022/11/17 05:56:18;;;;;;;5.18;1.05;;;14.60;64.70;;;;;;4987891;28;20026;-58
2022/11/17 05:58:46;;;;;;;6.32;2.00;;;14.70;64.40;;;;;;4981987;28;20077;-59
2022/11/17 06:01:15;;;;;;;3.47;1.00;;;14.80;64.40;;;;;;4984543;28;20105;-59
2022/11/17 06:03:46;;;;;;;3.72;1.10;;;14.80;64.00;;;;;;4985145;28;20069;-59
2022/11/17 06:06:12;;;;;;;1.10;0.60;;;14.90;63.50;;;;;;4987523;28;20113;-58
2022/11/17 06:08:38;;;;;;;2.35;0.90;;;14.90;63.50;;;;;;4987252;28;20034;-60
2022/11/17 06:11:04;;;;;;;3.30;0.90;;;14.90;64.00;;;;;;4985557;28;20395;-57
2022/11/17 06:13:30;;;;;;;3.58;1.20;;;14.90;63.70;;;;;;4981789;28;20294;-61
2022/11/17 06:15:58;;;;;;;2.57;0.80;;;14.80;64.30;;;;;;4985423;28;20031;-59
2022/11/17 06:18:29;;;;;;;3.40;1.13;;;14.80;64.40;;;;;;4983681;28;20113;-59
2022/11/17 06:20:54;;;;;;;2.55;1.00;;;14.80;64.40;;;;;;4983327;28;20531;-62
2022/11/17 06:23:25;;;;;;;2.63;0.90;;;14.80;64.70;;;;;;4986629;28;20035;-63
2022/11/17 06:25:51;;;;;;;1.70;0.88;;;14.70;65.00;;;;;;4988108;28;20525;-59
2022/11/17 06:28:20;;;;;;;4.72;1.23;;;14.70;65.00;;;;;;4988539;28;20038;-61
2022/11/17 06:30:47;;;;;;;2.97;1.25;;;14.60;65.30;;;;;;4982282;28;20030;-60
2022/11/17 06:33:14;;;;;;;2.95;0.98;;;14.60;66.20;;;;;;4986292;28;20031;-60
2022/11/17 06:35:42;;;;;;;4.60;1.70;;;14.60;65.90;;;;;;4985878;28;20034;-61
2022/11/17 06:38:08;;;;;;;2.85;1.05;;;14.60;65.60;;;;;;4987720;28;20054;-61
2022/11/17 06:40:34;;;;;;;4.97;1.20;;;14.60;65.60;;;;;;4990538;28;20049;-57
2022/11/17 06:43:02;;;;;;;2.90;1.10;;;14.50;65.00;;;;;;4987890;28;20073;-57
2022/11/17 06:45:38;;;;;;;3.10;1.02;;;14.60;65.70;;;;;;4988166;28;20035;-57
2022/11/17 06:48:05;;;;;;;4.35;2.05;;;14.60;65.60;;;;;;4982477;28;20120;-56
2022/11/17 06:50:31;;;;;;;2.50;1.10;;;14.50;65.50;;;;;;4990270;28;20026;-57
2022/11/17 06:52:58;;;;;;;6.43;1.13;;;14.50;65.90;;;;;;4986856;28;20044;-57
2022/11/17 06:55:24;;;;;;;3.97;1.10;;;14.40;66.60;;;;;;4986949;28;20034;-58
2022/11/17 06:57:50;;;;;;;4.25;1.33;;;14.40;66.90;;;;;;4988653;28;20034;-57
2022/11/17 07:00:17;;;;;;;2.90;1.60;;;14.30;66.60;;;;;;4988481;28;20443;-58
2022/11/17 07:02:42;;;;;;;3.10;1.00;;;14.30;66.20;;;;;;4989340;28;20462;-53
2022/11/17 07:05:08;;;;;;;3.37;1.20;;;14.30;66.80;;;;;;4985592;28;20542;-59
2022/11/17 07:07:34;;;;;;;1.83;0.80;;;14.30;66.40;;;;;;4985444;28;20038;-57
2022/11/17 07:10:00;;;;;;;5.93;1.60;;;14.30;66.90;;;;;;4988348;28;20566;-58
2022/11/17 07:12:25;;;;;;;2.93;0.97;;;14.30;67.60;;;;;;4991037;28;20031;-58
2022/11/17 07:14:51;;;;;;;2.87;0.93;;;14.30;67.90;;;;;;4989755;28;20054;-57
2022/11/17 07:17:16;;;;;;;3.87;1.10;;;14.30;67.30;;;;;;4988994;28;20030;-57
2022/11/17 07:19:42;;;;;;;3.87;1.00;;;14.30;66.50;;;;;;4989419;28;20194;-59
2022/11/17 07:22:08;;;;;;;6.13;1.63;;;14.30;66.90;;;;;;4980660;28;20035;-60
2022/11/17 07:24:33;;;;;;;3.53;1.57;;;14.30;67.20;;;;;;4987456;28;20023;-58
2022/11/17 07:26:59;;;;;;;3.87;1.20;;;14.30;67.40;;;;;;4987260;28;20133;-60
2022/11/17 07:29:24;;;;;;;4.87;1.47;;;14.40;67.50;;;;;;4990349;28;20037;-63
2022/11/17 07:31:50;;;;;;;3.10;0.80;;;14.40;67.30;;;;;;4988584;28;20039;-63
2022/11/17 07:34:16;;;;;;;4.60;1.30;;;14.50;67.40;;;;;;4989798;28;20034;-62
2022/11/17 07:36:41;;;;;;;4.47;1.17;;;14.40;66.50;;;;;;4988885;28;20451;-63
2022/11/17 07:39:08;;;;;;;;;;;14.50;67.20;;;;;;4986190;28;20054;-63
2022/11/17 07:41:33;;;;;;;3.33;0.90;;;14.60;66.80;;;;;;4988616;28;20256;-61
2022/11/17 07:43:59;;;;;;;9.27;1.20;;;14.70;66.20;;;;;;4990623;28;20085;-63
2022/11/17 07:46:24;;;;;;;5.77;1.43;;;14.70;66.10;;;;;;4988676;28;20153;-61
2022/11/17 07:48:53;;;;;;;1.57;0.83;;;14.80;65.80;;;;;;4990430;28;20065;-63
2022/11/17 07:51:19;;;;;;;4.45;0.98;;;14.90;65.80;;;;;;4988287;28;20027;-63
2022/11/17 07:53:46;;;;;;;3.20;1.35;;;14.90;65.50;;;;;;4987180;28;20093;-59
2022/11/17 07:56:11;;;;;;;2.80;1.23;;;15.00;65.40;;;;;;4986898;28;20034;-60
2022/11/17 07:58:38;;;;;;;2.47;0.80;;;15.00;65.20;;;;;;4988515;28;20037;-61
2022/11/17 08:01:15;;;;;;;5.70;1.23;;;15.10;65.00;;;;;;4987231;28;20022;-62
2022/11/17 08:03:41;;;;;;;;;;;15.10;65.80;;;;;;4990155;28;20041;-62
2022/11/17 08:06:08;;;;;;;2.85;1.08;;;15.20;64.60;;;;;;4987739;28;19909;-58
2022/11/17 08:08:34;;;;;;;1.88;0.85;;;15.20;65.00;;;;;;4986115;28;20590;-58
2022/11/17 08:11:04;;;;;;;6.87;1.20;;;15.20;64.40;;;;;;4986889;28;20117;-61
2022/11/17 08:13:30;;;;;;;3.30;1.25;;;15.20;65.50;;;;;;4987841;28;21183;-62
2022/11/17 08:15:57;;;;;;;7.22;1.20;;;15.30;64.90;;;;;;4986846;28;20026;-58
2022/11/17 08:18:24;;;;;;;2.50;1.10;;;15.30;64.50;;;;;;4984898;28;20423;-61
2022/11/17 08:20:50;;;;;;;7.75;1.05;;;15.40;64.10;;;;;;4988305;28;20029;-61
2022/11/17 08:23:16;;;;;;;4.03;1.30;;;15.40;64.00;;;;;;4990148;28;20030;-58
2022/11/17 08:25:42;;;;;;;5.53;1.27;;;15.50;64.50;;;;;;4988481;28;20027;-63
2022/11/17 08:28:08;;;;;;;1.92;0.90;;;15.50;64.40;;;;;;4985560;28;20109;-58
2022/11/17 08:30:34;;;;;;;3.87;1.07;;;15.50;64.80;;;;;;4988879;28;20574;-62
2022/11/17 08:33:00;;;;;;;;;;;15.40;64.50;;;;;;4987868;28;20026;-60
2022/11/17 08:35:26;;;;;;;5.32;1.20;;;15.40;64.60;;;;;;4986833;28;19918;-59
2022/11/17 08:37:52;;;;;;;2.60;1.10;;;15.40;64.80;;;;;;4988218;28;20810;-64
2022/11/17 08:40:18;;;;;;;4.63;1.15;;;15.30;64.60;;;;;;4987579;28;20030;-60
2022/11/17 08:42:45;;;;;;;5.90;1.50;;;15.30;65.10;;;;;;4990071;28;20037;-65
2022/11/17 08:45:11;;;;;;;12.55;1.40;;;15.30;64.70;;;;;;4986885;28;20037;-57
2022/11/17 08:47:37;;;;;;;;;;;15.40;65.20;;;;;;4988129;28;20074;-62
2022/11/17 08:50:05;;;;;;;4.95;1.13;;;15.30;64.80;;;;;;4980770;28;19941;-62
2022/11/17 08:52:30;;;;;;;8.30;1.45;;;15.40;64.60;;;;;;4986572;28;20038;-62
2022/11/17 08:54:56;;;;;;;4.07;1.27;;;15.40;65.00;;;;;;4987774;28;20418;-62
2022/11/17 08:57:22;;;;;;;4.87;1.40;;;15.40;65.20;;;;;;4986279;28;20033;-62
2022/11/17 08:59:48;;;;;;;4.37;1.50;;;15.40;64.90;;;;;;4987927;28;20023;-62
2022/11/17 09:02:13;;;;;;;4.97;1.30;;;15.40;65.00;;;;;;4987670;28;20781;-63
2022/11/17 09:04:39;;;;;;;10.10;1.50;;;15.50;66.10;;;;;;4989472;28;20034;-61
2022/11/17 09:07:05;;;;;;;3.43;1.30;;;15.50;65.70;;;;;;4985449;28;20305;-61
2022/11/17 09:09:31;;;;;;;9.20;1.73;;;15.50;65.50;;;;;;4988099;28;20057;-65
2022/11/17 09:11:58;;;;;;;3.65;1.20;;;15.50;65.70;;;;;;4985029;28;20042;-60
2022/11/17 09:14:24;;;;;;;;;;;15.60;65.00;;;;;;4987270;28;20032;-60
2022/11/17 09:16:49;;;;;;;7.63;1.60;;;15.60;65.60;;;;;;4985356;28;19910;-58
2022/11/17 09:19:16;;;;;;;7.33;2.40;;;15.60;65.50;;;;;;4988408;28;20105;-60
2022/11/17 09:21:41;;;;;;;;;;;15.60;65.40;;;;;;4986319;28;20034;-60
2022/11/17 09:24:08;;;;;;;15.93;2.85;;;15.60;65.90;;;;;;4986670;28;19916;-62
2022/11/17 09:26:34;;;;;;;7.65;1.35;;;15.60;64.90;;;;;;4986226;28;20033;-63
2022/11/17 09:29:02;;;;;;;9.45;1.13;;;15.70;65.10;;;;;;4986030;28;20038;-59
2022/11/17 09:31:28;;;;;;;9.88;1.50;;;15.60;64.90;;;;;;4983673;28;20031;-59
2022/11/17 09:33:54;;;;;;;6.20;1.58;;;15.70;65.00;;;;;;4985885;28;20057;-60
2022/11/17 09:36:20;;;;;;;1.98;0.85;;;15.70;65.00;;;;;;4984886;28;20040;-58
2022/11/17 09:38:46;;;;;;;3.33;1.50;;;15.60;64.70;;;;;;4987863;28;20114;-60
2022/11/17 09:41:15;;;;;;;3.00;1.00;;;15.70;64.90;;;;;;4984247;28;20396;-58
2022/11/17 09:43:53;;;;;;;6.78;1.17;;;15.80;65.20;;;;;;4983754;28;20026;-57
2022/11/17 09:46:27;;;;;;;6.35;1.40;;;15.80;64.70;;;;;;4986286;28;20498;-64
2022/11/17 09:49:09;;;;;;;6.28;1.30;;;15.80;64.60;;;;;;4986744;28;20443;-60
2022/11/17 09:51:37;;;;;;;4.38;1.27;;;15.70;65.20;;;;;;4983260;28;20153;-58
2022/11/17 09:54:48;;;;;;;10.90;1.40;;;15.80;65.30;;;;;;4984353;28;20121;-62
2022/11/17 09:57:21;;;;;;;8.35;1.52;;;15.80;65.00;;;;;;4983546;28;20034;-63
2022/11/17 09:59:58;;;;;;;7.13;1.17;;;15.90;65.80;;;;;;4980151;28;20047;-61
2022/11/17 10:02:24;;;;;;;3.13;1.23;;;15.90;65.10;;;;;;4985151;28;20035;-63
2022/11/17 10:04:49;;;;;;;7.00;1.17;;;15.90;65.00;;;;;;4982149;28;20113;-62
2022/11/17 10:07:15;;;;;;;5.90;2.07;;;16.00;66.50;;;;;;4985007;28;20050;-61
2022/11/17 10:09:44;;;;;;;8.48;1.40;;;16.00;65.70;;;;;;4986257;28;20031;-63
2022/11/17 10:12:19;;;;;;;4.88;1.58;;;16.10;65.20;;;;;;4984802;28;20033;-62
2022/11/17 10:14:47;;;;;;;9.50;1.50;;;16.10;64.70;;;;;;4980474;28;20054;-62
2022/11/17 10:17:12;;;;;;;10.80;2.33;;;16.10;65.40;;;;;;4985654;28;20084;-59
2022/11/17 10:19:39;;;;;;;8.47;1.90;;;16.20;65.00;;;;;;4987413;28;20038;-63
2022/11/17 10:22:05;;;;;;;;;;;16.20;64.40;;;;;;4983923;28;20498;-61
2022/11/17 10:24:42;;;;;;;5.20;1.30;;;16.30;65.30;;;;;;4986191;28;20000;-60
2022/11/17 10:27:16;;;;;;;;;;;16.40;65.00;;;;;;4986587;28;20039;-60
2022/11/17 10:30:01;;;;;;;4.85;1.80;;;16.30;64.10;;;;;;4982677;28;20189;-59
2022/11/17 10:32:30;;;;;;;6.15;1.63;;;16.30;64.30;;;;;;4983855;28;20034;-59
2022/11/17 10:35:16;;;;;;;6.65;1.52;;;16.40;64.20;;;;;;4981598;28;20457;-60
2022/11/17 10:37:51;;;;;;;10.85;1.70;;;16.40;63.80;;;;;;4983547;28;20494;-59
2022/11/17 10:40:20;;;;;;;7.97;2.20;;;16.50;64.20;;;;;;4986048;28;20572;-60
2022/11/17 10:42:56;;;;;;;8.88;1.85;;;16.50;64.10;;;;;;4983756;28;20398;-58
2022/11/17 10:45:22;;;;;;;7.97;1.65;;;16.70;63.60;;;;;;4982560;28;20057;-58
2022/11/17 10:47:48;;;;;;;8.88;3.28;;;16.70;63.70;;;;;;4987132;28;20511;-58
2022/11/17 10:50:27;;;;;;;6.80;1.50;;;16.70;63.90;;;;;;4985979;28;20033;-63
2022/11/17 10:53:14;;;;;;;3.15;1.73;;;16.70;63.40;;;;;;4984936;28;20038;-60
2022/11/17 10:55:41;;;;;;;10.20;2.42;;;16.70;63.40;;;;;;4985501;28;20510;-62
2022/11/17 10:58:23;;;;;;;4.15;1.42;;;16.70;63.80;;;;;;4985956;28;20018;-62
2022/11/17 11:00:54;;;;;;;5.88;1.30;;;16.50;64.30;;;;;;4983075;28;20517;-59
2022/11/17 11:03:23;;;;;;;8.20;1.60;;;16.50;64.30;;;;;;4983417;28;20089;-62
2022/11/17 11:06:02;;;;;;;8.00;1.85;;;16.40;64.20;;;;;;4980362;28;20097;-60
2022/11/17 11:08:56;;;;;;;7.07;2.00;;;16.40;64.20;;;;;;4982586;28;20076;-57
2022/11/17 11:11:55;;;;;;;13.57;1.63;;;16.40;64.10;;;;;;4983825;28;20027;-61
2022/11/17 11:14:23;;;;;;;7.93;2.03;;;16.40;64.20;;;;;;4981040;28;20053;-60
2022/11/17 11:16:50;;;;;;;8.93;1.80;;;16.50;64.40;;;;;;4991422;28;20041;-60
2022/11/17 11:19:18;;;;;;;21.42;2.70;;;16.50;63.30;;;;;;4991399;28;20044;-58
2022/11/17 11:22:12;;;;;;;5.82;1.50;;;16.40;64.10;;;;;;4988619;28;20026;-57
2022/11/17 11:24:59;;;;;;;4.65;1.40;;;16.40;64.40;;;;;;4984870;28;20403;-58
2022/11/17 11:27:43;;;;;;;6.22;1.70;;;16.40;64.60;;;;;;4988741;28;20038;-58
2022/11/17 11:30:15;;;;;;;4.07;1.50;;;16.40;64.80;;;;;;4985206;28;20027;-57
2022/11/17 11:33:26;;;;;;;2.63;1.23;;;16.30;64.70;;;;;;4985150;28;20034;-58
2022/11/17 11:36:21;;;;;;;7.18;2.22;;;16.30;64.00;;;;;;5010565;28;20495;-60
2022/11/17 11:39:27;;;;;;;9.07;1.88;;;16.30;64.30;;;;;;4987776;28;20062;-61
2022/11/17 11:42:19;;;;;;;6.30;1.70;;;16.30;64.60;;;;;;4986307;28;20193;-59
2022/11/17 11:45:26;;;;;;;8.63;2.00;;;16.20;64.80;;;;;;4985315;28;20054;-58
2022/11/17 11:48:12;;;;;;;6.80;1.50;;;16.20;65.60;;;;;;4988539;28;20073;-60
2022/11/17 11:50:55;;;;;;;6.68;1.65;;;16.20;65.50;;;;;;4988304;28;20546;-60
2022/11/17 11:53:24;;;;;;;6.10;1.30;;;16.20;65.10;;;;;;4983734;28;20487;-59
2022/11/17 11:56:03;;;;;;;7.70;2.35;;;16.30;64.90;;;;;;4988978;28;20057;-58
2022/11/17 11:58:29;;;;;;;7.72;1.48;;;16.20;65.00;;;;;;4987719;28;20450;-57
2022/11/17 12:01:03;;;;;;;3.50;1.70;;;16.30;65.50;;;;;;4988440;28;20014;-57
2022/11/17 12:03:57;;;;;;;7.88;1.63;;;16.30;64.90;;;;;;4986315;28;20034;-58
2022/11/17 12:06:39;;;;;;;4.20;1.60;;;16.30;65.50;;;;;;4988146;28;20398;-57
2022/11/17 12:09:40;;;;;;;11.15;1.77;;;16.20;65.50;;;;;;4985066;28;20038;-56
2022/11/17 12:12:08;;;;;;;3.30;1.40;;;16.20;65.30;;;;;;4982763;28;20023;-58
2022/11/17 12:14:36;;;;;;;5.90;1.40;;;16.20;66.20;;;;;;4988722;28;20030;-57
2022/11/17 12:17:25;;;;;;;12.77;2.22;;;16.10;66.80;;;;;;4984170;28;20038;-59
2022/11/17 12:19:51;;;;;;;9.40;1.80;;;16.10;66.20;;;;;;4986092;28;20438;-58
2022/11/17 12:22:48;;;;;;;10.40;2.72;;;16.10;66.50;;;;;;4988566;28;20122;-61
2022/11/17 12:25:18;;;;;;;8.10;1.63;;;16.10;67.30;;;;;;4981462;28;20035;-60
2022/11/17 12:27:52;;;;;;;9.63;1.27;;;16.00;67.50;;;;;;4987184;28;20053;-58
2022/11/17 12:30:43;;;;;;;7.88;2.42;;;16.00;66.80;;;;;;4985914;28;20088;-58
2022/11/17 12:33:09;;;;;;;5.10;1.60;;;16.10;67.90;;;;;;4987819;28;20030;-60
2022/11/17 12:35:37;;;;;;;6.40;2.03;;;16.10;67.40;;;;;;4983583;28;20414;-58
2022/11/17 12:38:15;;;;;;;7.18;1.90;;;16.10;67.40;;;;;;4988869;28;20061;-58
2022/11/17 12:40:44;;;;;;;5.03;1.30;;;16.10;66.90;;;;;;4986038;28;20031;-65
2022/11/17 12:43:16;;;;;;;6.47;1.90;;;16.20;66.90;;;;;;4988590;28;20434;-62
2022/11/17 12:46:03;;;;;;;6.40;1.70;;;16.20;66.90;;;;;;4987600;28;20022;-58
2022/11/17 12:48:32;;;;;;;6.63;1.50;;;16.20;66.40;;;;;;4987230;28;20460;-57
2022/11/17 12:51:25;;;;;;;7.80;1.92;;;16.30;66.90;;;;;;4979315;28;20113;-59
2022/11/17 12:53:53;;;;;;;7.18;1.83;;;16.30;65.90;;;;;;4988357;28;20026;-58
2022/11/17 12:56:44;;;;;;;4.80;1.92;;;16.30;66.10;;;;;;4989360;28;20060;-57
2022/11/17 12:59:19;;;;;;;9.98;2.90;;;16.30;66.00;;;;;;4986579;28;20034;-61
2022/11/17 13:02:02;;;;;;;3.42;1.30;;;16.40;65.80;;;;;;4987460;28;20100;-60
2022/11/17 13:05:01;;;;;;;7.10;1.50;;;16.40;65.70;;;;;;4984188;28;20804;-62
2022/11/17 13:07:26;;;;;;;6.88;2.33;;;16.40;66.00;;;;;;4985944;28;20836;-64
2022/11/17 13:09:55;;;;;;;10.83;1.80;;;16.40;66.60;;;;;;4985389;28;20030;-63
2022/11/17 13:12:24;;;;;;;10.25;1.90;;;16.40;65.30;;;;;;4985932;28;20031;-63
2022/11/17 13:14:53;;;;;;;8.52;1.90;;;16.40;65.90;;;;;;4987696;28;20030;-61
2022/11/17 13:17:29;;;;;;;11.75;2.33;;;16.40;65.70;;;;;;4983383;28;20023;-63
2022/11/17 13:20:00;;;;;;;8.50;2.08;;;16.30;66.20;;;;;;4985860;28;20034;-62
2022/11/17 13:22:25;;;;;;;9.95;2.08;;;16.30;66.60;;;;;;4981994;28;20046;-58
2022/11/17 13:24:52;;;;;;;23.77;3.57;;;16.30;66.30;;;;;;4986609;28;20799;-63
2022/11/17 13:27:24;;;;;;;10.10;2.28;;;16.30;66.10;;;;;;4987883;28;20042;-63
2022/11/17 13:29:51;;;;;;;6.93;2.40;;;16.30;66.30;;;;;;4984230;28;20041;-59